X  Sluiten METAR luchtvaart weer gegevens      EDDM Munich Airport
Temperatuur
31°C Temperatuur
17°C Dauwpunt
43% Vochtigheid



Wind
2 MPH
3 KM/U
1 M/S
2 KTS



Kalm
N
Huidig weer

Helder Helder
Luchtdruk 1014.9 (hPa) - 29.97 (inHg)
Zicht 6 (mijl) - 9.7 (km)
Vliegveld
Vliegveld code EDDM

Locatie : Munich Airport
Afstand: 73 (mi)

Metar:
EDDM 191620Z AUTO VRB02KT CAVOK 31/17 Q1015 NOSIG

Tijd: 19-06-2024 16:20 CEST